createdAt,value
2018-10-11T00:02:05.780Z,25.10
2018-10-11T00:04:33.801Z,26.03
2018-10-11T00:07:01.750Z,26.87
2018-10-11T00:09:29.716Z,25.87
2018-10-11T00:11:57.670Z,22.80
2018-10-11T00:14:25.658Z,26.80
2018-10-11T00:16:53.665Z,25.03
2018-10-11T00:19:21.736Z,26.30
2018-10-11T00:21:49.692Z,27.30
2018-10-11T00:24:17.736Z,26.80
2018-10-11T00:26:45.684Z,28.03
2018-10-11T00:29:13.942Z,27.23
2018-10-11T00:31:41.855Z,26.77
2018-10-11T00:34:09.990Z,25.70
2018-10-11T00:36:37.969Z,25.77
2018-10-11T00:39:07.272Z,26.43
2018-10-11T00:41:35.399Z,26.80
2018-10-11T00:44:03.557Z,26.63
2018-10-11T00:46:31.517Z,25.13
2018-10-11T00:48:59.464Z,25.37
2018-10-11T00:51:27.399Z,25.87
2018-10-11T00:53:55.577Z,25.03
2018-10-11T00:56:23.536Z,25.40
2018-10-11T00:58:51.560Z,25.63
2018-10-11T01:01:19.451Z,22.87
2018-10-11T01:03:47.399Z,25.77
2018-10-11T01:06:15.347Z,26.37
2018-10-11T01:08:43.305Z,27.13
2018-10-11T01:11:11.247Z,26.97
2018-10-11T01:13:39.636Z,24.70
2018-10-11T01:16:07.563Z,24.37
2018-10-11T01:18:35.537Z,24.67
2018-10-11T01:21:03.518Z,24.97
2018-10-11T01:23:31.441Z,26.17
2018-10-11T01:25:59.467Z,24.43
2018-10-11T01:28:27.395Z,25.60
2018-10-11T01:31:01.042Z,25.73
2018-10-11T01:33:28.990Z,25.40
2018-10-11T01:35:56.965Z,26.77
2018-10-11T01:38:24.941Z,27.07
2018-10-11T01:40:52.913Z,24.40
2018-10-11T01:43:20.833Z,25.17
2018-10-11T01:45:48.855Z,24.37
2018-10-11T01:48:16.858Z,24.10
2018-10-11T01:50:44.833Z,22.40
2018-10-11T01:53:12.795Z,24.67
2018-10-11T01:55:40.761Z,27.57
2018-10-11T01:58:08.672Z,26.63
2018-10-11T02:00:36.919Z,26.60
2018-10-11T02:03:04.854Z,27.07
2018-10-11T02:05:32.842Z,26.20
2018-10-11T02:08:00.818Z,25.77
2018-10-11T02:10:29.204Z,26.40
2018-10-11T02:12:58.290Z,25.07
2018-10-11T02:15:27.217Z,23.07
2018-10-11T02:17:55.335Z,22.77
2018-10-11T02:20:23.360Z,22.67
2018-10-11T02:22:51.274Z,21.03
2018-10-11T02:25:19.256Z,22.50
2018-10-11T02:27:47.221Z,23.33
2018-10-11T02:30:15.221Z,22.30
2018-10-11T02:32:43.468Z,22.67
2018-10-11T02:35:12.263Z,23.00
2018-10-11T02:37:40.755Z,26.23
2018-10-11T02:40:08.880Z,25.37
2018-10-11T02:42:36.854Z,26.73
2018-10-11T02:45:05.278Z,25.03
2018-10-11T02:47:33.259Z,24.53
2018-10-11T02:50:01.253Z,25.80
2018-10-11T02:52:29.256Z,26.10
2018-10-11T02:54:57.275Z,25.90
2018-10-11T02:57:36.470Z,24.97
2018-10-11T03:00:04.913Z,26.97
2018-10-11T03:02:33.758Z,27.37
2018-10-11T03:05:01.761Z,25.10
2018-10-11T03:07:30.122Z,25.37
2018-10-11T03:09:58.964Z,28.00
2018-10-11T03:12:26.937Z,27.70
2018-10-11T03:14:54.929Z,28.93
2018-10-11T03:17:22.954Z,27.37
2018-10-11T03:19:50.943Z,27.97
2018-10-11T03:22:19.926Z,27.90
2018-10-11T03:24:47.875Z,30.17
2018-10-11T03:27:16.296Z,26.97
2018-10-11T03:29:44.255Z,26.13
2018-10-11T03:32:12.627Z,26.63
2018-10-11T03:34:40.556Z,28.50
2018-10-11T03:37:08.581Z,27.10
2018-10-11T03:39:36.537Z,29.33
2018-10-11T03:42:04.525Z,28.93
2018-10-11T03:44:32.549Z,24.23
2018-10-11T03:47:00.743Z,27.53
2018-10-11T03:49:28.699Z,29.67
2018-10-11T03:51:56.995Z,28.77
2018-10-11T03:54:25.214Z,28.73
2018-10-11T03:56:53.218Z,28.40
2018-10-11T03:59:21.229Z,29.60
2018-10-11T04:01:49.304Z,28.50
2018-10-11T04:04:17.311Z,27.47
2018-10-11T04:06:45.357Z,25.67
2018-10-11T04:09:13.341Z,25.67
2018-10-11T04:11:41.451Z,23.60
2018-10-11T04:14:09.435Z,21.33
2018-10-11T04:16:37.756Z,29.40
2018-10-11T04:19:06.159Z,29.93
2018-10-11T04:21:34.296Z,28.57
2018-10-11T04:24:02.384Z,27.87
2018-10-11T04:26:30.573Z,28.50
2018-10-11T04:28:58.539Z,28.37
2018-10-11T04:31:26.737Z,24.83
2018-10-11T04:33:54.970Z,23.63
2018-10-11T04:36:23.337Z,26.67
2018-10-11T04:38:51.548Z,27.70
2018-10-11T04:41:19.998Z,26.57
2018-10-11T04:43:48.205Z,28.77
2018-10-11T04:46:16.575Z,28.27
2018-10-11T04:48:44.925Z,28.30
2018-10-11T04:51:13.279Z,28.83
2018-10-11T04:53:41.729Z,28.63
2018-10-11T04:56:10.215Z,29.43
2018-10-11T04:58:38.596Z,29.20
2018-10-11T05:01:07.195Z,28.33
2018-10-11T05:03:35.655Z,27.63
2018-10-11T05:06:04.406Z,25.93
2018-10-11T05:08:32.816Z,26.50
2018-10-11T05:11:01.257Z,31.10
2018-10-11T05:13:36.355Z,30.03
2018-10-11T05:16:04.914Z,26.80
2018-10-11T05:18:34.331Z,28.10
2018-10-11T05:21:02.653Z,28.37
2018-10-11T05:23:31.136Z,29.27
2018-10-11T05:25:59.640Z,30.63
2018-10-11T05:28:28.054Z,30.77
2018-10-11T05:30:56.515Z,31.00
2018-10-11T05:33:25.283Z,31.70
2018-10-11T05:35:53.613Z,27.57
2018-10-11T05:38:22.133Z,31.03
2018-10-11T05:40:50.514Z,29.07
2018-10-11T05:43:19.114Z,30.87
2018-10-11T05:45:55.000Z,27.23
2018-10-11T05:48:24.323Z,26.27
2018-10-11T05:50:52.918Z,28.77
2018-10-11T05:53:21.480Z,33.27
2018-10-11T05:55:50.403Z,30.00
2018-10-11T05:58:19.673Z,29.20
2018-10-11T06:00:48.013Z,27.40
2018-10-11T06:03:16.532Z,26.83
2018-10-11T06:05:45.077Z,29.77
2018-10-11T06:08:13.613Z,27.97
2018-10-11T06:10:43.392Z,23.57
2018-10-11T06:13:12.096Z,23.37
2018-10-11T06:15:41.054Z,22.57
2018-10-11T06:18:10.685Z,22.40
2018-10-11T06:20:39.180Z,21.27
2018-10-11T06:23:07.821Z,21.70
2018-10-11T06:25:36.354Z,21.53
2018-10-11T06:28:05.020Z,20.83
2018-10-11T06:30:34.525Z,19.97
2018-10-11T06:33:03.173Z,19.50
2018-10-11T06:35:31.993Z,19.27
2018-10-11T06:38:01.311Z,19.60
2018-10-11T06:40:29.881Z,17.90
2018-10-11T06:42:58.734Z,19.33
2018-10-11T06:45:27.322Z,18.87
2018-10-11T06:47:59.208Z,18.67
2018-10-11T06:50:27.775Z,19.00
2018-10-11T06:52:56.629Z,21.03
2018-10-11T06:55:25.028Z,21.20
2018-10-11T06:57:53.469Z,22.03
2018-10-11T07:00:21.848Z,21.23
2018-10-11T07:02:50.385Z,22.70
2018-10-11T07:05:18.812Z,20.70
2018-10-11T07:07:47.328Z,20.97
2018-10-11T07:10:15.719Z,18.87
2018-10-11T07:12:44.439Z,22.03
2018-10-11T07:15:12.900Z,22.47
2018-10-11T07:17:41.350Z,21.00
2018-10-11T07:20:09.906Z,20.17
2018-10-11T07:22:38.427Z,20.40
2018-10-11T07:25:06.960Z,21.37
2018-10-11T07:27:35.388Z,21.03
2018-10-11T07:30:04.072Z,20.53
2018-10-11T07:32:32.835Z,19.70
2018-10-11T07:35:01.464Z,20.63
2018-10-11T07:37:29.796Z,20.37
2018-10-11T07:39:58.413Z,20.80
2018-10-11T07:42:26.949Z,21.57
2018-10-11T07:44:55.500Z,21.30
2018-10-11T07:47:23.807Z,21.87
2018-10-11T07:49:52.280Z,20.57
2018-10-11T07:52:20.932Z,20.73
2018-10-11T07:54:50.148Z,20.77
2018-10-11T07:57:18.594Z,21.53
2018-10-11T07:59:47.059Z,20.57
2018-10-11T08:02:15.441Z,20.90
2018-10-11T08:04:43.960Z,20.17
2018-10-11T08:07:12.345Z,21.17
2018-10-11T08:09:40.760Z,20.63
2018-10-11T08:12:09.398Z,21.17
2018-10-11T08:14:37.927Z,20.23
2018-10-11T08:17:06.927Z,21.77
2018-10-11T08:19:35.800Z,22.10
2018-10-11T08:22:03.987Z,23.47
2018-10-11T08:24:32.568Z,23.10
2018-10-11T08:27:01.031Z,21.53
2018-10-11T08:29:29.506Z,22.17
2018-10-11T08:31:57.859Z,22.13
2018-10-11T08:34:26.261Z,22.77
2018-10-11T08:36:54.644Z,22.73
2018-10-11T08:39:23.098Z,23.17
2018-10-11T08:41:51.899Z,21.60
2018-10-11T08:44:20.457Z,22.67
2018-10-11T08:46:48.859Z,21.87
2018-10-11T08:49:17.344Z,23.17
2018-10-11T08:51:45.802Z,22.43
2018-10-11T08:54:19.787Z,21.67
2018-10-11T08:56:48.321Z,22.60
2018-10-11T08:59:16.937Z,21.60
2018-10-11T09:01:45.380Z,21.10
2018-10-11T09:04:14.020Z,22.27
2018-10-11T09:06:42.419Z,20.33
2018-10-11T09:09:11.082Z,19.83
2018-10-11T09:11:39.471Z,19.13
2018-10-11T09:14:08.000Z,18.93
2018-10-11T09:16:36.622Z,17.77
2018-10-11T09:19:05.321Z,18.93
2018-10-11T09:21:33.698Z,19.00
2018-10-11T09:24:02.109Z,14.63
2018-10-11T09:26:30.680Z,14.73
2018-10-11T09:28:59.062Z,15.53
2018-10-11T09:31:27.563Z,15.07
2018-10-11T09:33:55.979Z,15.80
2018-10-11T09:36:24.469Z,15.70
2018-10-11T09:38:53.138Z,15.40
2018-10-11T09:41:21.579Z,15.07
2018-10-11T09:43:50.019Z,14.50
2018-10-11T09:46:18.458Z,15.13
2018-10-11T09:48:47.288Z,15.83
2018-10-11T09:51:15.928Z,15.83
2018-10-11T09:53:44.340Z,15.53
2018-10-11T09:56:12.788Z,14.40
2018-10-11T09:58:41.220Z,15.13
2018-10-11T10:01:15.006Z,14.10
2018-10-11T10:03:43.347Z,16.60
2018-10-11T10:06:11.809Z,15.70
2018-10-11T10:08:40.151Z,15.77
2018-10-11T10:11:08.695Z,15.30
2018-10-11T10:13:37.209Z,16.23
2018-10-11T10:16:05.747Z,15.80
2018-10-11T10:18:34.276Z,15.10
2018-10-11T10:21:03.111Z,13.90
2018-10-11T10:23:31.507Z,15.07
2018-10-11T10:26:00.166Z,14.40
2018-10-11T10:28:28.612Z,14.33
2018-10-11T10:30:57.149Z,14.40
2018-10-11T10:33:25.971Z,13.47
2018-10-11T10:35:54.516Z,13.77
2018-10-11T10:38:23.471Z,13.63
2018-10-11T10:40:52.249Z,13.27
2018-10-11T10:43:20.890Z,13.97
2018-10-11T10:45:49.639Z,13.97
2018-10-11T10:48:18.112Z,13.17
2018-10-11T10:50:46.532Z,12.77
2018-10-11T10:53:14.966Z,12.73
2018-10-11T10:55:43.444Z,12.97
2018-10-11T10:58:11.986Z,12.60
2018-10-11T11:00:40.366Z,11.97
2018-10-11T11:03:08.864Z,13.37
2018-10-11T11:05:37.428Z,12.60
2018-10-11T11:08:06.146Z,12.43
2018-10-11T11:10:34.618Z,13.17
2018-10-11T11:13:03.162Z,12.77
2018-10-11T11:15:31.706Z,12.27
2018-10-11T11:18:00.392Z,11.93
2018-10-11T11:20:28.945Z,12.83
2018-10-11T11:22:57.504Z,12.43
2018-10-11T11:25:25.971Z,12.40
2018-10-11T11:27:54.502Z,13.17
2018-10-11T11:30:23.085Z,12.57
2018-10-11T11:32:51.514Z,12.50
2018-10-11T11:35:20.153Z,13.50
2018-10-11T11:37:48.614Z,13.17
2018-10-11T11:40:17.077Z,13.23
2018-10-11T11:42:45.558Z,13.07
2018-10-11T11:45:14.001Z,13.70
2018-10-11T11:47:42.450Z,12.80
2018-10-11T11:50:10.962Z,14.03
2018-10-11T11:52:39.418Z,13.37
2018-10-11T11:55:07.882Z,14.10
2018-10-11T11:57:36.503Z,13.17
2018-10-11T12:00:05.346Z,13.30
2018-10-11T12:02:34.132Z,14.10
2018-10-11T12:05:02.541Z,13.50
2018-10-11T12:07:31.114Z,15.00
2018-10-11T12:09:59.515Z,14.23
2018-10-11T12:13:15.693Z,14.50
2018-10-11T12:15:44.972Z,14.17
2018-10-11T12:18:13.572Z,13.00
2018-10-11T12:20:42.574Z,13.27
2018-10-11T12:23:12.022Z,12.83
2018-10-11T12:25:40.513Z,12.23
2018-10-11T12:28:08.989Z,12.87
2018-10-11T12:30:37.460Z,14.43
2018-10-11T12:33:06.102Z,13.13
2018-10-11T12:35:34.592Z,13.80
2018-10-11T12:38:03.073Z,14.10
2018-10-11T12:40:31.513Z,14.10
2018-10-11T12:42:59.952Z,13.47
2018-10-11T12:45:28.456Z,13.10
2018-10-11T12:47:56.995Z,13.70
2018-10-11T12:50:25.562Z,13.23
2018-10-11T12:52:54.068Z,13.83
2018-10-11T12:55:22.636Z,13.77
2018-10-11T12:57:51.060Z,13.43
2018-10-11T13:00:19.698Z,13.20
2018-10-11T13:02:48.208Z,14.53
2018-10-11T13:05:16.792Z,14.70
2018-10-11T13:07:45.401Z,12.63
2018-10-11T13:10:13.931Z,12.80
2018-10-11T13:12:42.414Z,12.73
2018-10-11T13:15:11.075Z,13.63
2018-10-11T13:17:42.814Z,14.27
2018-10-11T13:20:08.894Z,13.93
2018-10-11T13:22:37.746Z,14.07
2018-10-11T13:25:06.445Z,13.23
2018-10-11T13:27:34.954Z,13.57
2018-10-11T13:30:03.496Z,13.20
2018-10-11T13:32:32.036Z,13.00
2018-10-11T13:35:00.560Z,13.50
2018-10-11T13:37:29.066Z,14.13
2018-10-11T13:39:58.092Z,13.10
2018-10-11T13:42:26.112Z,13.70
2018-10-11T13:44:54.717Z,13.03
2018-10-11T13:47:23.390Z,12.03
2018-10-11T13:49:52.055Z,13.87
2018-10-11T13:52:22.514Z,13.23
2018-10-11T13:54:49.072Z,12.93
2018-10-11T13:57:17.594Z,13.17
2018-10-11T13:59:45.994Z,13.17
2018-10-11T14:02:14.570Z,12.50
2018-10-11T14:04:43.367Z,12.10
2018-10-11T14:07:11.940Z,13.27
2018-10-11T14:09:40.479Z,12.60
2018-10-11T14:12:09.081Z,12.17
2018-10-11T14:14:44.032Z,12.70
2018-10-11T14:17:12.596Z,13.30
2018-10-11T14:19:41.428Z,12.37
2018-10-11T14:22:10.034Z,11.90
2018-10-11T14:24:38.439Z,12.43
2018-10-11T14:27:06.912Z,11.97
2018-10-11T14:29:35.412Z,11.30
2018-10-11T14:32:03.956Z,11.33
2018-10-11T14:34:32.493Z,11.00
2018-10-11T14:37:01.522Z,10.53
2018-10-11T14:39:29.931Z,11.23
2018-10-11T14:41:58.513Z,12.40
2018-10-11T14:44:27.236Z,11.40
2018-10-11T14:46:58.841Z,11.27
2018-10-11T14:49:27.333Z,11.20
2018-10-11T14:51:55.901Z,11.07
2018-10-11T14:54:24.528Z,11.73
2018-10-11T14:56:53.153Z,10.87
2018-10-11T14:59:21.762Z,10.63
2018-10-11T15:01:50.397Z,10.57
2018-10-11T15:04:18.816Z,11.00
2018-10-11T15:06:47.493Z,11.97
2018-10-11T15:09:16.071Z,10.73
2018-10-11T15:11:44.602Z,10.83
2018-10-11T15:14:13.039Z,11.40
2018-10-11T15:16:41.695Z,11.20
2018-10-11T15:19:10.298Z,11.13
2018-10-11T15:21:39.165Z,10.23
2018-10-11T15:24:08.032Z,10.80
2018-10-11T15:26:36.494Z,10.67
2018-10-11T15:29:05.557Z,11.20
2018-10-11T15:31:34.093Z,10.53
2018-10-11T15:34:02.772Z,10.70
2018-10-11T15:36:31.375Z,10.63
2018-10-11T15:39:00.085Z,10.80
2018-10-11T15:41:28.698Z,10.53
2018-10-11T15:43:57.449Z,10.83
2018-10-11T15:46:26.102Z,9.47
2018-10-11T15:48:54.807Z,9.57
2018-10-11T15:51:23.490Z,10.07
2018-10-11T15:53:52.062Z,10.07
2018-10-11T15:56:20.749Z,9.50
2018-10-11T15:58:49.500Z,10.10
2018-10-11T16:01:17.983Z,10.20
2018-10-11T16:03:46.571Z,9.97
2018-10-11T16:06:15.086Z,10.33
2018-10-11T16:08:43.643Z,9.57
2018-10-11T16:11:12.141Z,9.20
2018-10-11T16:13:40.729Z,9.70
2018-10-11T16:16:09.320Z,10.73
2018-10-11T16:18:38.302Z,11.07
2018-10-11T16:21:13.340Z,10.03
2018-10-11T16:23:41.821Z,11.00
2018-10-11T16:26:10.221Z,10.13
2018-10-11T16:28:38.741Z,9.90
2018-10-11T16:31:07.303Z,10.57
2018-10-11T16:33:35.804Z,11.00
2018-10-11T16:36:04.303Z,11.23
2018-10-11T16:38:32.965Z,10.40
2018-10-11T16:41:01.482Z,10.60
2018-10-11T16:43:32.526Z,10.37
2018-10-11T16:46:01.165Z,11.20
2018-10-11T16:48:29.798Z,10.73
2018-10-11T16:50:58.266Z,10.30
2018-10-11T16:53:26.824Z,10.43
2018-10-11T16:55:55.364Z,10.43
2018-10-11T16:58:24.077Z,10.53
2018-10-11T17:00:52.623Z,11.47
2018-10-11T17:03:21.471Z,10.80
2018-10-11T17:05:50.066Z,10.57
2018-10-11T17:08:19.243Z,9.67
2018-10-11T17:10:48.009Z,10.33
2018-10-11T17:13:16.443Z,9.97
2018-10-11T17:15:45.106Z,9.63
2018-10-11T17:18:13.777Z,9.53
2018-10-11T17:20:42.321Z,10.30
2018-10-11T17:23:10.804Z,9.73
2018-10-11T17:25:39.448Z,9.63
2018-10-11T17:28:08.004Z,10.10
2018-10-11T17:30:36.485Z,10.27
2018-10-11T17:33:04.923Z,10.10
2018-10-11T17:35:33.530Z,8.87
2018-10-11T17:38:01.982Z,9.63
2018-10-11T17:40:30.483Z,8.60
2018-10-11T17:42:59.129Z,9.90
2018-10-11T17:45:28.461Z,10.20
2018-10-11T17:47:57.010Z,9.43
2018-10-11T17:50:25.815Z,8.97
2018-10-11T17:52:54.383Z,9.17
2018-10-11T17:55:22.981Z,9.00
2018-10-11T17:57:51.604Z,9.37
2018-10-11T18:00:20.227Z,9.50
2018-10-11T18:02:48.826Z,9.30
2018-10-11T18:05:17.565Z,9.17
2018-10-11T18:07:46.086Z,9.87
2018-10-11T18:10:14.875Z,9.53
2018-10-11T18:12:43.642Z,9.30
2018-10-11T18:15:12.725Z,10.13
2018-10-11T18:17:41.385Z,9.17
2018-10-11T18:20:10.425Z,9.47
2018-10-11T18:22:38.991Z,9.00
2018-10-11T18:25:09.046Z,9.70
2018-10-11T18:27:37.883Z,9.50
2018-10-11T18:30:08.530Z,9.90
2018-10-11T18:32:37.102Z,10.40
2018-10-11T18:35:06.453Z,9.23
2018-10-11T18:37:38.157Z,9.67
2018-10-11T18:40:06.887Z,9.67
2018-10-11T18:42:35.584Z,10.07
2018-10-11T18:45:04.427Z,10.20
2018-10-11T18:47:33.314Z,9.60
2018-10-11T18:50:02.189Z,10.20
2018-10-11T18:52:30.804Z,10.57
2018-10-11T18:54:59.646Z,9.80
2018-10-11T18:57:28.565Z,9.07
2018-10-11T18:59:57.298Z,9.70
2018-10-11T19:02:26.211Z,10.10
2018-10-11T19:04:55.064Z,10.13
2018-10-11T19:07:24.064Z,11.03
2018-10-11T19:09:52.649Z,10.03
2018-10-11T19:12:21.490Z,10.37
2018-10-11T19:14:50.339Z,9.87
2018-10-11T19:17:19.262Z,10.23
2018-10-11T19:19:48.103Z,9.40
2018-10-11T19:22:17.022Z,9.43
2018-10-11T19:24:45.882Z,10.40
2018-10-11T19:27:15.234Z,10.10
2018-10-11T19:29:43.813Z,9.73
2018-10-11T19:32:12.721Z,9.67
2018-10-11T19:34:41.380Z,9.17
2018-10-11T19:37:09.986Z,8.93
2018-10-11T19:39:39.042Z,9.87
2018-10-11T19:42:07.972Z,9.00
2018-10-11T19:44:36.499Z,8.83
2018-10-11T19:47:05.302Z,8.67
2018-10-11T19:49:33.912Z,9.83
2018-10-11T19:52:02.703Z,9.97
2018-10-11T19:54:31.175Z,9.77
2018-10-11T19:56:59.833Z,9.67
2018-10-11T19:59:28.453Z,9.47
2018-10-11T20:01:56.873Z,9.27
2018-10-11T20:04:25.512Z,9.17
2018-10-11T20:06:54.150Z,7.63
2018-10-11T20:09:22.666Z,10.27
2018-10-11T20:11:51.276Z,9.40
2018-10-11T20:14:19.917Z,9.23
2018-10-11T20:16:48.855Z,10.80
2018-10-11T20:19:17.382Z,8.50
2018-10-11T20:21:45.975Z,9.67
2018-10-11T20:24:14.741Z,9.27
2018-10-11T20:26:43.455Z,10.07
2018-10-11T20:29:12.097Z,10.20
2018-10-11T20:31:40.482Z,9.80
2018-10-11T20:34:08.982Z,8.73
2018-10-11T20:36:37.527Z,9.30
2018-10-11T20:39:07.835Z,9.93
2018-10-11T20:41:36.236Z,10.00
2018-10-11T20:44:04.715Z,10.07
2018-10-11T20:46:33.535Z,9.13
2018-10-11T20:49:01.674Z,10.20
2018-10-11T20:51:29.903Z,10.00
2018-10-11T20:53:58.322Z,9.40
2018-10-11T20:56:26.532Z,10.33
2018-10-11T20:58:54.639Z,9.13
2018-10-11T21:01:22.808Z,9.10
2018-10-11T21:03:51.132Z,9.10
2018-10-11T21:06:19.175Z,9.97
2018-10-11T21:08:47.259Z,10.07
2018-10-11T21:11:15.299Z,10.70
2018-10-11T21:13:43.572Z,10.50
2018-10-11T21:16:11.700Z,10.10
2018-10-11T21:18:39.792Z,8.90
2018-10-11T21:21:08.048Z,9.47
2018-10-11T21:23:36.407Z,9.80
2018-10-11T21:26:04.725Z,10.13
2018-10-11T21:28:33.014Z,9.50
2018-10-11T21:31:01.037Z,10.40
2018-10-11T21:33:29.234Z,10.23
2018-10-11T21:35:57.267Z,9.57
2018-10-11T21:38:25.245Z,9.87
2018-10-11T21:40:53.267Z,10.37
2018-10-11T21:43:21.264Z,9.53
2018-10-11T21:45:49.367Z,9.57
2018-10-11T21:48:17.459Z,9.73
2018-10-11T21:50:45.476Z,9.77
2018-10-11T21:53:13.484Z,9.83
2018-10-11T21:55:41.488Z,9.07
2018-10-11T21:58:09.499Z,9.10
2018-10-11T22:00:43.223Z,9.30
2018-10-11T22:03:11.251Z,9.37
2018-10-11T22:05:39.215Z,10.33
2018-10-11T22:08:07.290Z,9.40
2018-10-11T22:10:35.317Z,9.90
2018-10-11T22:13:04.273Z,9.63
2018-10-11T22:15:32.743Z,10.10
2018-10-11T22:18:00.842Z,9.97
2018-10-11T22:20:28.813Z,10.10
2018-10-11T22:22:56.775Z,9.60
2018-10-11T22:25:24.806Z,9.67
2018-10-11T22:27:53.809Z,10.30
2018-10-11T22:30:21.750Z,9.43
2018-10-11T22:32:49.736Z,9.20
2018-10-11T22:35:17.676Z,9.70
2018-10-11T22:37:47.392Z,9.97
2018-10-11T22:40:29.554Z,9.73
2018-10-11T22:42:59.604Z,9.77
2018-10-11T22:45:27.598Z,9.63
2018-10-11T22:47:56.401Z,10.00
2018-10-11T22:50:25.794Z,10.10
2018-10-11T22:52:54.322Z,10.10
2018-10-11T22:55:22.623Z,9.63
2018-10-11T22:57:50.624Z,9.87
2018-10-11T23:00:18.874Z,9.50
2018-10-11T23:02:46.824Z,10.03
2018-10-11T23:05:14.807Z,9.60
2018-10-11T23:07:42.707Z,9.10
2018-10-11T23:10:11.008Z,9.37
2018-10-11T23:12:39.020Z,9.33
2018-10-11T23:15:07.161Z,9.53
2018-10-11T23:17:35.146Z,9.80
2018-10-11T23:20:03.141Z,9.37
2018-10-11T23:22:31.090Z,9.67
2018-10-11T23:24:59.160Z,11.30
2018-10-11T23:27:27.124Z,12.07
2018-10-11T23:29:55.314Z,11.50
2018-10-11T23:32:23.247Z,11.83
2018-10-11T23:34:51.257Z,11.83
2018-10-11T23:37:19.188Z,13.23
2018-10-11T23:39:47.169Z,12.40
2018-10-11T23:42:15.159Z,11.33
2018-10-11T23:44:43.411Z,12.17
2018-10-11T23:47:11.485Z,12.50
2018-10-11T23:49:39.525Z,12.57
2018-10-11T23:52:07.515Z,12.73
2018-10-11T23:54:35.825Z,12.83
2018-10-11T23:57:03.730Z,13.17
2018-10-11T23:59:31.713Z,13.00
